Time;durP1;ratioP1;P1;durP2;ratioP2;P2;SDS_P1;SDS_P2;PMS_P1;PMS_P2;Temp;Humidity;BMP_temperature;BMP_pressure;BME280_temperature;BME280_humidity;BME280_pressure;Samples;Min_cycle;Max_cycle;Signal;HPM_P1;HPM_P2
2021/01/08 00:00:54;;;;;;;1.60;1.50;;;;;16.10;99943.00;;;;2063575;28;20207;-51
2021/01/08 00:01:55;;;;;;;1.83;1.73;;;;;16.10;99942.00;;;;2063496;28;20291;-52
2021/01/08 00:02:55;;;;;;;1.43;1.33;;;;;16.10;99937.00;;;;2063601;28;20215;-53
2021/01/08 00:03:55;;;;;;;1.40;1.30;;;;;16.10;99937.00;;;;2063402;28;20294;-53
2021/01/08 00:04:56;;;;;;;1.60;1.50;;;;;16.10;99934.00;;;;2062760;28;20371;-52
2021/01/08 00:05:56;;;;;;;1.43;1.33;;;;;16.10;99887.00;;;;2063501;28;20223;-50
2021/01/08 00:06:56;;;;;;;1.60;1.50;;;;;16.10;99935.00;;;;2063305;28;20596;-51
2021/01/08 00:07:57;;;;;;;1.80;1.70;;;;;16.10;99939.00;;;;2063210;28;20227;-53
2021/01/08 00:08:57;;;;;;;1.40;1.30;;;;;16.10;99930.00;;;;2063300;28;20606;-53
2021/01/08 00:09:57;;;;;;;1.60;1.50;;;;;16.10;99927.00;;;;2063241;28;20219;-50
2021/01/08 00:10:58;;;;;;;1.40;1.33;;;;;16.10;99933.00;;;;2063195;28;20231;-53
2021/01/08 00:11:58;;;;;;;1.60;1.50;;;;;16.10;99922.00;;;;2060474;28;20246;-53
2021/01/08 00:12:58;;;;;;;1.60;1.50;;;;;16.10;99936.00;;;;2062809;28;20678;-49
2021/01/08 00:13:59;;;;;;;1.63;1.53;;;;;16.10;99937.00;;;;2062939;28;20219;-50
2021/01/08 00:14:59;;;;;;;1.47;1.37;;;;;16.10;99938.00;;;;2061304;28;20269;-52
2021/01/08 00:15:59;;;;;;;2.23;1.70;;;;;16.10;99935.00;;;;2061615;28;20266;-52
2021/01/08 00:17:00;;;;;;;1.93;1.83;;;;;16.10;99934.00;;;;2060099;28;20222;-53
2021/01/08 00:18:00;;;;;;;1.60;1.50;;;;;16.10;99943.00;;;;2062380;28;20751;-52
2021/01/08 00:19:01;;;;;;;1.70;1.60;;;;;16.10;99938.00;;;;2063361;28;20624;-51
2021/01/08 00:20:03;;;;;;;1.58;1.48;;;;;16.10;99929.00;;;;2062950;28;20219;-52
2021/01/08 00:21:03;;;;;;;1.60;1.50;;;;;16.10;99950.00;;;;2063319;28;20211;-52
2021/01/08 00:22:04;;;;;;;1.60;1.50;;;;;16.10;99952.00;;;;2060071;28;20208;-54
2021/01/08 00:23:04;;;;;;;1.70;1.60;;;;;16.10;99941.00;;;;2062271;28;20818;-52
2021/01/08 00:24:05;;;;;;;1.53;1.43;;;;;16.10;99951.00;;;;2062280;28;20605;-54
2021/01/08 00:25:06;;;;;;;1.60;1.50;;;;;16.10;99939.00;;;;2062306;28;20215;-52
2021/01/08 00:26:06;;;;;;;1.77;1.67;;;;;16.10;99941.00;;;;2061227;28;20254;-53
2021/01/08 00:27:06;;;;;;;1.60;1.50;;;;;16.10;99943.00;;;;2058533;28;20243;-53
2021/01/08 00:28:07;;;;;;;2.03;1.83;;;;;16.10;99947.00;;;;2062539;28;20219;-53
2021/01/08 00:29:08;;;;;;;1.63;1.53;;;;;16.10;99941.00;;;;2063106;28;20293;-50
2021/01/08 00:30:09;;;;;;;1.67;1.58;;;;;16.10;99941.00;;;;2062207;28;20222;-52
2021/01/08 00:31:09;;;;;;;1.58;1.48;;;;;16.10;99949.00;;;;2062700;28;21115;-52
2021/01/08 00:32:10;;;;;;;1.70;1.60;;;;;16.10;99939.00;;;;2060983;28;20238;-53
2021/01/08 00:33:11;;;;;;;1.70;1.60;;;;;16.10;99947.00;;;;2062413;28;20274;-52
2021/01/08 00:34:15;;;;;;;1.60;1.50;;;;;16.10;99937.00;;;;2061920;28;20454;-51
2021/01/08 00:35:16;;;;;;;1.65;1.55;;;;;16.10;99947.00;;;;2076730;28;20943;-52
2021/01/08 00:36:16;;;;;;;2.17;2.07;;;;;16.10;99951.00;;;;2074512;28;20221;-53
2021/01/08 00:37:16;;;;;;;1.50;1.40;;;;;16.10;99942.00;;;;2062303;28;21034;-53
2021/01/08 00:38:17;;;;;;;1.57;1.47;;;;;16.10;99944.00;;;;2062087;28;20681;-54
2021/01/08 00:39:17;;;;;;;2.13;1.70;;;;;16.10;99940.00;;;;2062786;28;20238;-53
2021/01/08 00:40:18;;;;;;;1.60;1.50;;;;;16.10;99944.00;;;;2062237;28;20241;-52
2021/01/08 00:41:26;;;;;;;1.83;1.73;;;;;16.10;99944.00;;;;2060610;28;20222;-52
2021/01/08 00:42:27;;;;;;;1.58;1.48;;;;;16.10;99949.00;;;;2062494;28;20353;-53
2021/01/08 00:43:28;;;;;;;1.60;1.50;;;;;16.10;99939.00;;;;2062468;28;20219;-53
2021/01/08 00:44:28;;;;;;;1.77;1.67;;;;;16.10;99939.00;;;;2061906;28;20218;-51
2021/01/08 00:45:30;;;;;;;1.50;1.40;;;;;16.10;99945.00;;;;2062360;28;20239;-52
2021/01/08 00:46:38;;;;;;;1.70;1.60;;;;;16.10;99939.00;;;;2057282;28;20407;-53
2021/01/08 00:47:38;;;;;;;1.60;1.50;;;;;16.10;99941.00;;;;2061690;28;20692;-52
2021/01/08 00:48:38;;;;;;;1.47;1.37;;;;;16.10;99941.00;;;;2062490;28;20219;-52
2021/01/08 00:49:39;;;;;;;1.60;1.50;;;;;16.10;99940.00;;;;2062247;28;20309;-51
2021/01/08 00:50:39;;;;;;;1.53;1.43;;;;;16.10;99947.00;;;;2062684;28;20211;-51
2021/01/08 00:51:39;;;;;;;1.50;1.40;;;;;16.10;99950.00;;;;2057393;28;20223;-51
2021/01/08 00:52:40;;;;;;;1.53;1.43;;;;;16.10;99943.00;;;;2063208;28;20215;-49
2021/01/08 00:53:40;;;;;;;1.53;1.43;;;;;16.10;99946.00;;;;2063064;28;20215;-51
2021/01/08 00:54:43;;;;;;;1.53;1.43;;;;;16.10;99949.00;;;;2062477;28;20227;-52
2021/01/08 00:55:44;;;;;;;1.63;1.52;;;;;16.10;99942.00;;;;2063119;28;20227;-54
2021/01/08 00:56:46;;;;;;;1.50;1.40;;;;;16.10;99950.00;;;;2063172;28;20220;-50
2021/01/08 00:57:46;;;;;;;1.55;1.45;;;;;16.10;99947.00;;;;2061164;28;20250;-55
2021/01/08 00:58:47;;;;;;;1.63;1.53;;;;;16.10;99944.00;;;;2062504;28;20732;-55
2021/01/08 00:59:47;;;;;;;1.50;1.40;;;;;16.10;99948.00;;;;2062990;28;20767;-55
2021/01/08 01:00:47;;;;;;;1.33;1.23;;;;;16.10;99948.00;;;;2062843;28;20207;-53
2021/01/08 01:01:48;;;;;;;1.37;1.27;;;;;16.10;99948.00;;;;2063156;28;20208;-53
2021/01/08 01:02:48;;;;;;;1.57;1.47;;;;;16.10;99948.00;;;;2063075;28;20227;-52
2021/01/08 01:03:48;;;;;;;1.80;1.70;;;;;16.10;99949.00;;;;2062969;28;20242;-50
2021/01/08 01:04:49;;;;;;;1.47;1.37;;;;;16.10;99948.00;;;;2062411;28;20211;-51
2021/01/08 01:05:49;;;;;;;1.80;1.70;;;;;16.10;99947.00;;;;2063169;28;20222;-52
2021/01/08 01:06:49;;;;;;;1.77;1.67;;;;;16.10;99948.00;;;;2063047;28;20377;-52
2021/01/08 01:07:50;;;;;;;1.60;1.50;;;;;16.10;99957.00;;;;2062898;28;20230;-53
2021/01/08 01:08:50;;;;;;;1.33;1.23;;;;;16.10;99951.00;;;;2063039;28;20220;-51
2021/01/08 01:09:51;;;;;;;1.70;1.60;;;;;16.10;99952.00;;;;2062657;28;20723;-51
2021/01/08 01:10:51;;;;;;;1.60;1.50;;;;;16.10;99957.00;;;;2062896;28;20222;-52
2021/01/08 01:11:51;;;;;;;1.50;1.40;;;;;16.10;99953.00;;;;2063027;28;20215;-52
2021/01/08 01:12:52;;;;;;;1.50;1.40;;;;;16.10;99955.00;;;;2062992;28;20290;-48
2021/01/08 01:13:55;;;;;;;1.50;1.40;;;;;16.10;99959.00;;;;2062885;28;20254;-51
2021/01/08 01:14:55;;;;;;;1.50;1.40;;;;;16.10;99949.00;;;;2062318;28;20868;-53
2021/01/08 01:15:56;;;;;;;1.67;1.57;;;;;16.10;99950.00;;;;2062918;28;20223;-53
2021/01/08 01:16:56;;;;;;;1.33;1.23;;;;;16.10;99955.00;;;;2062704;28;20306;-52
2021/01/08 01:17:56;;;;;;;1.70;1.60;;;;;16.10;99953.00;;;;2063036;28;20219;-51
2021/01/08 01:18:57;;;;;;;1.27;1.17;;;;;16.10;99960.00;;;;2063151;28;20230;-50
2021/01/08 01:19:58;;;;;;;1.40;1.30;;;;;16.10;99960.00;;;;2062392;28;20223;-50
2021/01/08 01:20:58;;;;;;;1.70;1.60;;;;;16.10;99952.00;;;;2062791;28;21229;-51
2021/01/08 01:21:58;;;;;;;1.60;1.50;;;;;16.10;99953.00;;;;2063090;28;21127;-50
2021/01/08 01:22:59;;;;;;;1.43;1.33;;;;;16.10;99958.00;;;;2062903;28;20219;-49
2021/01/08 01:23:59;;;;;;;1.80;1.70;;;;;16.10;99957.00;;;;2062780;28;20262;-50
2021/01/08 01:24:59;;;;;;;1.70;1.60;;;;;16.10;99908.00;;;;2062287;28;20234;-51
2021/01/08 01:26:00;;;;;;;1.27;1.23;;;;;16.10;99961.00;;;;2062971;28;20816;-51
2021/01/08 01:27:00;;;;;;;1.40;1.30;;;;;16.10;99960.00;;;;2062035;28;20817;-52
2021/01/08 01:28:00;;;;;;;1.60;1.50;;;;;16.10;99953.00;;;;2052438;28;20326;-52
2021/01/08 01:29:01;;;;;;;1.60;1.50;;;;;16.10;99958.00;;;;2065623;28;20265;-53
2021/01/08 01:30:01;;;;;;;1.60;1.50;;;;;16.10;99960.00;;;;2062199;28;20207;-51
2021/01/08 01:31:02;;;;;;;1.43;1.33;;;;;16.00;99966.00;;;;2062662;28;20215;-52
2021/01/08 01:32:02;;;;;;;1.70;1.60;;;;;16.10;99964.00;;;;2062598;28;20223;-52
2021/01/08 01:33:03;;;;;;;1.23;1.17;;;;;16.10;99964.00;;;;2062822;28;20459;-52
2021/01/08 01:34:05;;;;;;;1.50;1.40;;;;;16.10;99969.00;;;;2062673;28;20227;-52
2021/01/08 01:35:06;;;;;;;1.42;1.33;;;;;16.10;99966.00;;;;2062222;28;20705;-52
2021/01/08 01:36:07;;;;;;;1.13;1.10;;;;;16.10;99966.00;;;;2062749;28;20215;-52
2021/01/08 01:37:08;;;;;;;1.20;1.20;;;;;16.10;99964.00;;;;2062728;28;20470;-51
2021/01/08 01:38:08;;;;;;;1.43;1.33;;;;;16.10;99965.00;;;;2062682;28;21080;-51
2021/01/08 01:39:08;;;;;;;1.63;1.53;;;;;16.10;99965.00;;;;2063018;28;20731;-52
2021/01/08 01:40:09;;;;;;;1.70;1.60;;;;;16.10;99969.00;;;;2062687;28;20693;-52
2021/01/08 01:41:10;;;;;;;1.13;1.13;;;;;16.10;99969.00;;;;2075094;28;20214;-52
2021/01/08 01:42:10;;;;;;;1.60;1.50;;;;;16.10;99963.00;;;;2078393;28;20465;-51
2021/01/08 01:43:10;;;;;;;1.63;1.50;;;;;16.00;99971.00;;;;2063434;28;20219;-52
2021/01/08 01:44:11;;;;;;;1.50;1.40;;;;;16.10;99965.00;;;;2061864;28;20458;-52
2021/01/08 01:45:11;;;;;;;1.50;1.40;;;;;16.10;99974.00;;;;2060377;28;20219;-51
2021/01/08 01:46:19;;;;;;;1.40;1.30;;;;;16.00;99968.00;;;;2062561;28;20227;-52
2021/01/08 01:47:21;;;;;;;1.30;1.20;;;;;16.00;99970.00;;;;2077778;28;20460;-50
2021/01/08 01:48:21;;;;;;;2.72;1.95;;;;;16.00;99972.00;;;;2070113;28;20220;-53
2021/01/08 01:49:22;;;;;;;1.50;1.40;;;;;16.10;99973.00;;;;2070381;28;20221;-58
2021/01/08 01:50:22;;;;;;;1.80;1.70;;;;;16.00;99973.00;;;;2070654;28;20276;-57
2021/01/08 01:51:23;;;;;;;1.50;1.40;;;;;16.00;99968.00;;;;2070103;28;20214;-55
2021/01/08 01:52:23;;;;;;;1.43;1.33;;;;;16.10;99969.00;;;;2054121;28;20299;-54
2021/01/08 01:53:23;;;;;;;1.30;1.20;;;;;16.10;99969.00;;;;2054137;28;20212;-54
2021/01/08 01:54:24;;;;;;;1.60;1.50;;;;;16.10;99976.00;;;;2069661;28;21017;-54
2021/01/08 01:55:24;;;;;;;1.20;1.20;;;;;16.10;99978.00;;;;2061415;28;20318;-52
2021/01/08 01:56:25;;;;;;;1.23;1.23;;;;;16.10;99972.00;;;;2061990;28;20297;-53
2021/01/08 01:57:25;;;;;;;1.40;1.30;;;;;16.10;99974.00;;;;2070658;28;20261;-54
2021/01/08 01:58:26;;;;;;;1.50;1.40;;;;;16.10;99976.00;;;;2070203;28;20206;-53
2021/01/08 01:59:26;;;;;;;1.30;1.20;;;;;16.10;99971.00;;;;2070607;28;20264;-50
2021/01/08 02:00:27;;;;;;;1.50;1.40;;;;;16.10;99969.00;;;;2070376;28;20221;-51
2021/01/08 02:01:27;;;;;;;1.70;1.60;;;;;16.10;99981.00;;;;2070343;28;20310;-53
2021/01/08 02:02:34;;;;;;;1.60;1.50;;;;;16.10;99980.00;;;;2069545;28;20301;-52
2021/01/08 02:03:41;;;;;;;1.27;1.20;;;;;16.10;99980.00;;;;2070198;28;20217;-53
2021/01/08 02:04:41;;;;;;;1.40;1.30;;;;;16.10;99975.00;;;;2062983;28;20212;-52
2021/01/08 02:05:41;;;;;;;1.43;1.33;;;;;16.10;99971.00;;;;2062323;28;20203;-53
2021/01/08 02:06:42;;;;;;;1.40;1.30;;;;;16.10;99980.00;;;;2061407;28;20231;-53
2021/01/08 02:08:05;;;;;;;1.57;1.47;;;;;16.10;99980.00;;;;2061802;28;20210;-51
2021/01/08 02:09:07;;;;;;;1.40;1.30;;;;;16.10;99977.00;;;;2069862;28;20221;-53
2021/01/08 02:10:08;;;;;;;1.40;1.30;;;;;16.10;99977.00;;;;2070025;28;20856;-52
2021/01/08 02:11:10;;;;;;;1.30;1.20;;;;;16.10;99981.00;;;;2061701;28;20374;-53
2021/01/08 02:12:10;;;;;;;1.48;1.38;;;;;16.10;99983.00;;;;2061866;28;20588;-53
2021/01/08 02:13:12;;;;;;;1.40;1.30;;;;;16.10;99981.00;;;;2070111;28;20206;-53
2021/01/08 02:14:16;;;;;;;1.20;1.20;;;;;16.10;99984.00;;;;2068960;28;20218;-53
2021/01/08 02:15:16;;;;;;;1.50;1.40;;;;;16.10;99986.00;;;;2067747;28;20241;-54
2021/01/08 02:16:16;;;;;;;1.43;1.33;;;;;16.10;99995.00;;;;2070166;28;20223;-54
2021/01/08 02:17:17;;;;;;;1.47;1.37;;;;;16.10;99983.00;;;;2069817;28;20214;-51
2021/01/08 02:18:17;;;;;;;1.20;1.20;;;;;16.10;99974.00;;;;2061886;28;20223;-50
2021/01/08 02:19:51;;;;;;;1.00;1.00;;;;;16.10;99983.00;;;;2061155;28;21092;-52
2021/01/08 02:20:52;;;;;;;1.23;1.13;;;;;16.10;99983.00;;;;2064755;28;20218;-53
2021/01/08 02:21:56;;;;;;;1.30;1.20;;;;;16.10;99993.00;;;;2069890;28;20932;-54
2021/01/08 02:23:02;;;;;;;1.30;1.20;;;;;16.10;99990.00;;;;2069837;28;20211;-55
2021/01/08 02:24:10;;;;;;;1.50;1.40;;;;;16.10;99989.00;;;;2061978;28;20242;-52
2021/01/08 02:25:14;;;;;;;1.55;1.45;;;;;16.10;99993.00;;;;2047130;28;20617;-53
2021/01/08 02:26:14;;;;;;;1.52;1.42;;;;;16.10;99986.00;;;;2062760;28;20222;-52
2021/01/08 02:27:14;;;;;;;1.40;1.30;;;;;16.10;99989.00;;;;2061421;28;20842;-53
2021/01/08 02:28:22;;;;;;;1.33;1.23;;;;;16.00;99990.00;;;;2053775;28;20216;-54
2021/01/08 02:29:22;;;;;;;1.30;1.20;;;;;16.10;99987.00;;;;2062335;28;20219;-52
2021/01/08 02:30:22;;;;;;;1.40;1.30;;;;;16.00;99985.00;;;;2070064;28;20218;-53
2021/01/08 02:31:23;;;;;;;1.53;1.43;;;;;16.00;99989.00;;;;2069922;28;20706;-53
2021/01/08 02:32:24;;;;;;;1.10;1.00;;;;;16.10;99989.00;;;;2061812;28;20397;-53
2021/01/08 02:33:24;;;;;;;1.40;1.30;;;;;16.10;99987.00;;;;2069994;28;20639;-52
2021/01/08 02:34:25;;;;;;;1.17;1.10;;;;;16.10;99987.00;;;;2069784;28;20256;-53
2021/01/08 02:35:25;;;;;;;1.40;1.30;;;;;16.10;99990.00;;;;2053257;28;20263;-53
2021/01/08 02:36:26;;;;;;;1.50;1.40;;;;;16.10;99985.00;;;;2062013;28;20215;-51
2021/01/08 02:37:26;;;;;;;1.50;1.40;;;;;16.00;99992.00;;;;2053222;28;20228;-53
2021/01/08 02:38:27;;;;;;;1.47;1.37;;;;;16.10;99992.00;;;;2053843;28;20829;-53
2021/01/08 02:39:27;;;;;;;1.50;1.40;;;;;15.90;99995.00;;;;2062106;28;20652;-55
2021/01/08 02:40:27;;;;;;;1.27;1.17;;;;;16.10;99992.00;;;;2069338;28;20285;-52
2021/01/08 02:41:28;;;;;;;1.63;1.53;;;;;16.10;99996.00;;;;2070377;28;20234;-52
2021/01/08 02:42:28;;;;;;;1.40;1.30;;;;;16.10;99993.00;;;;2070025;28;20301;-52
2021/01/08 02:43:29;;;;;;;1.50;1.40;;;;;16.10;99988.00;;;;2069882;28;20591;-50
2021/01/08 02:44:29;;;;;;;1.43;1.33;;;;;16.10;99989.00;;;;2069178;28;20233;-52
2021/01/08 02:45:29;;;;;;;1.60;1.50;;;;;16.10;99988.00;;;;2069747;28;20305;-52
2021/01/08 02:46:30;;;;;;;1.20;1.10;;;;;16.10;99987.00;;;;2070687;28;20238;-49
2021/01/08 02:47:30;;;;;;;1.30;1.20;;;;;16.10;99989.00;;;;2070055;28;20218;-51
2021/01/08 02:48:31;;;;;;;1.23;1.10;;;;;16.00;99986.00;;;;2062854;28;20223;-53
2021/01/08 02:49:31;;;;;;;1.60;1.50;;;;;16.10;99992.00;;;;2070304;28;20249;-52
2021/01/08 02:50:31;;;;;;;2.07;1.97;;;;;16.00;99990.00;;;;2070541;28;20296;-53
2021/01/08 02:51:32;;;;;;;1.53;1.43;;;;;16.10;99996.00;;;;2070380;28;20214;-53
2021/01/08 02:52:33;;;;;;;1.50;1.40;;;;;16.10;99992.00;;;;2069799;28;20245;-51
2021/01/08 02:53:33;;;;;;;1.38;1.30;;;;;16.10;99990.00;;;;2054063;28;20220;-54
2021/01/08 02:54:34;;;;;;;1.30;1.20;;;;;16.10;99997.00;;;;2044496;28;20300;-53
2021/01/08 02:55:35;;;;;;;1.53;1.43;;;;;16.10;99993.00;;;;2045771;28;20217;-51
2021/01/08 02:56:46;;;;;;;1.23;1.20;;;;;16.10;99992.00;;;;2053495;28;20215;-52
2021/01/08 02:57:47;;;;;;;1.45;1.35;;;;;16.10;99989.00;;;;2063196;28;20299;-52
2021/01/08 02:58:47;;;;;;;1.57;1.47;;;;;16.10;99997.00;;;;2069375;28;20222;-53
2021/01/08 02:59:47;;;;;;;1.60;1.50;;;;;16.10;100005.00;;;;2055147;28;20300;-51
2021/01/08 03:00:49;;;;;;;1.37;1.27;;;;;16.10;100000.00;;;;2063186;28;20227;-52
2021/01/08 03:01:49;;;;;;;1.67;1.58;;;;;16.00;99998.00;;;;2058297;28;20227;-53
2021/01/08 03:02:50;;;;;;;1.63;1.53;;;;;16.10;100006.00;;;;2055198;28;20419;-50
2021/01/08 03:03:50;;;;;;;1.40;1.30;;;;;16.10;100004.00;;;;2058255;28;20225;-52
2021/01/08 03:04:51;;;;;;;1.63;1.53;;;;;16.10;99999.00;;;;2061477;28;20307;-50
2021/01/08 03:05:51;;;;;;;1.70;1.60;;;;;16.10;100001.00;;;;2058748;28;20653;-52
2021/01/08 03:06:52;;;;;;;1.47;1.37;;;;;16.10;100003.00;;;;2071195;28;20273;-52
2021/01/08 03:07:52;;;;;;;1.40;1.30;;;;;16.10;99992.00;;;;2063190;28;20911;-52
2021/01/08 03:08:52;;;;;;;1.53;1.43;;;;;16.10;100003.00;;;;2063056;28;20461;-50
2021/01/08 03:09:53;;;;;;;1.53;1.43;;;;;16.10;100000.00;;;;2071511;28;20222;-53
2021/01/08 03:10:54;;;;;;;1.40;1.30;;;;;16.10;100007.00;;;;2079592;28;20686;-52
2021/01/08 03:11:56;;;;;;;1.55;1.45;;;;;16.00;100006.00;;;;2071877;28;20225;-51
2021/01/08 03:12:57;;;;;;;1.35;1.25;;;;;16.00;100004.00;;;;2071844;28;20910;-51
2021/01/08 03:13:58;;;;;;;1.50;1.40;;;;;16.10;99998.00;;;;2071271;28;20316;-54
2021/01/08 03:14:59;;;;;;;1.17;1.17;;;;;16.00;100005.00;;;;2062545;28;20239;-51
2021/01/08 03:16:00;;;;;;;1.40;1.30;;;;;16.00;100008.00;;;;2063457;28;20265;-52
2021/01/08 03:17:00;;;;;;;1.70;1.60;;;;;16.10;100008.00;;;;2062903;28;20234;-51
2021/01/08 03:18:00;;;;;;;1.40;1.30;;;;;16.10;100002.00;;;;2071056;28;20218;-51
2021/01/08 03:19:01;;;;;;;1.43;1.33;;;;;16.10;100011.00;;;;2069139;28;20556;-51
2021/01/08 03:20:01;;;;;;;1.60;1.50;;;;;16.10;100003.00;;;;2069617;28;20210;-50
2021/01/08 03:21:01;;;;;;;1.80;1.70;;;;;16.00;100002.00;;;;2056379;28;20223;-53
2021/01/08 03:22:02;;;;;;;1.43;1.33;;;;;16.10;100003.00;;;;2067243;28;20289;-57
2021/01/08 03:23:04;;;;;;;1.60;1.50;;;;;16.10;99998.00;;;;2071962;28;20843;-56
2021/01/08 03:24:05;;;;;;;1.50;1.40;;;;;16.10;100002.00;;;;2071805;28;20217;-52
2021/01/08 03:25:05;;;;;;;1.23;1.13;;;;;16.10;100000.00;;;;2071377;28;20214;-51
2021/01/08 03:26:06;;;;;;;1.50;1.40;;;;;16.10;99998.00;;;;2071933;28;20701;-51
2021/01/08 03:27:06;;;;;;;1.40;1.30;;;;;16.10;100003.00;;;;2071515;28;20959;-53
2021/01/08 03:28:06;;;;;;;1.40;1.30;;;;;16.10;100003.00;;;;2071751;28;20873;-53
2021/01/08 03:29:07;;;;;;;1.70;1.60;;;;;16.00;100009.00;;;;2069508;28;20219;-53
2021/01/08 03:30:08;;;;;;;1.60;1.50;;;;;16.10;100008.00;;;;2071357;28;20214;-51
2021/01/08 03:31:08;;;;;;;1.33;1.23;;;;;16.10;100007.00;;;;2071645;28;20203;-54
2021/01/08 03:32:08;;;;;;;1.47;1.37;;;;;16.10;100006.00;;;;2071700;28;20500;-51
2021/01/08 03:33:09;;;;;;;1.47;1.37;;;;;16.10;100005.00;;;;2071762;28;20226;-53
2021/01/08 03:34:09;;;;;;;1.50;1.40;;;;;16.10;100013.00;;;;2071776;28;20222;-52
2021/01/08 03:35:09;;;;;;;1.50;1.40;;;;;16.10;100007.00;;;;2071165;28;20229;-50
2021/01/08 03:36:10;;;;;;;1.30;1.20;;;;;16.10;100007.00;;;;2071115;28;20226;-51
2021/01/08 03:37:10;;;;;;;1.40;1.30;;;;;16.10;100007.00;;;;2071636;28;20733;-52
2021/01/08 03:38:10;;;;;;;1.60;1.50;;;;;16.10;100011.00;;;;2071776;28;20226;-52
2021/01/08 03:39:11;;;;;;;1.50;1.40;;;;;16.10;100005.00;;;;2071525;28;20214;-53
2021/01/08 03:40:11;;;;;;;1.37;1.27;;;;;16.10;100004.00;;;;2070642;28;20750;-52
2021/01/08 03:41:12;;;;;;;1.40;1.30;;;;;16.10;100008.00;;;;2069835;28;20679;-50
2021/01/08 03:42:12;;;;;;;1.20;1.20;;;;;16.10;100003.00;;;;2070523;28;20302;-52
2021/01/08 03:43:12;;;;;;;1.50;1.40;;;;;16.10;100009.00;;;;2070421;28;20214;-54
2021/01/08 03:44:13;;;;;;;1.40;1.30;;;;;16.10;100008.00;;;;2070791;28;20219;-52
2021/01/08 03:45:13;;;;;;;1.70;1.60;;;;;16.10;100008.00;;;;2070532;28;20215;-52
2021/01/08 03:46:13;;;;;;;1.60;1.50;;;;;16.10;100016.00;;;;2071100;28;20695;-53
2021/01/08 03:47:14;;;;;;;1.20;1.10;;;;;16.10;100011.00;;;;2071240;28;20222;-53
2021/01/08 03:48:14;;;;;;;1.10;1.00;;;;;16.10;100008.00;;;;2070880;28;20215;-51
2021/01/08 03:49:14;;;;;;;1.13;1.10;;;;;16.00;100005.00;;;;2071458;28;20210;-52
2021/01/08 03:50:15;;;;;;;1.60;1.50;;;;;16.00;100007.00;;;;2070203;28;20229;-52
2021/01/08 03:51:15;;;;;;;1.67;1.57;;;;;16.00;100010.00;;;;2071666;28;20271;-53
2021/01/08 03:52:15;;;;;;;1.57;1.20;;;;;16.00;100008.00;;;;2071361;28;20353;-52
2021/01/08 03:53:16;;;;;;;1.43;1.33;;;;;16.10;100007.00;;;;2071792;28;20222;-53
2021/01/08 03:54:16;;;;;;;1.30;1.20;;;;;16.10;100013.00;;;;2071764;28;20219;-52
2021/01/08 03:55:16;;;;;;;1.30;1.20;;;;;16.00;99998.00;;;;2070987;28;20227;-51
2021/01/08 03:56:17;;;;;;;1.40;1.30;;;;;16.10;100012.00;;;;2071011;28;20257;-53
2021/01/08 03:57:17;;;;;;;1.77;1.67;;;;;16.10;100015.00;;;;2070995;28;20369;-52
2021/01/08 03:58:17;;;;;;;1.40;1.30;;;;;16.10;100012.00;;;;2071557;28;20218;-51
2021/01/08 03:59:18;;;;;;;1.43;1.33;;;;;16.10;100011.00;;;;2071717;28;20227;-53
2021/01/08 04:00:18;;;;;;;1.50;1.40;;;;;16.10;100013.00;;;;2071750;28;20377;-52
2021/01/08 04:01:19;;;;;;;1.53;1.43;;;;;16.10;100018.00;;;;2071614;28;20211;-50
2021/01/08 04:02:19;;;;;;;1.40;1.30;;;;;16.10;100016.00;;;;2071593;28;20862;-52
2021/01/08 04:03:19;;;;;;;1.50;1.40;;;;;16.10;100012.00;;;;2071807;28;20214;-52
2021/01/08 04:04:20;;;;;;;1.30;1.20;;;;;16.10;100014.00;;;;2071643;28;20245;-53
2021/01/08 04:05:20;;;;;;;1.40;1.30;;;;;16.10;100012.00;;;;2071001;28;20233;-52
2021/01/08 04:06:21;;;;;;;1.40;1.30;;;;;16.10;100012.00;;;;2071749;28;20637;-49
2021/01/08 04:07:21;;;;;;;1.17;1.03;;;;;16.10;100018.00;;;;2071656;28;20230;-52
2021/01/08 04:08:21;;;;;;;1.73;1.63;;;;;16.10;100013.00;;;;2071572;28;20222;-53
2021/01/08 04:09:22;;;;;;;1.50;1.40;;;;;16.10;100013.00;;;;2071506;28;20249;-52
2021/01/08 04:10:22;;;;;;;1.37;1.27;;;;;16.10;100011.00;;;;2070735;28;20242;-54
2021/01/08 04:11:22;;;;;;;1.43;1.33;;;;;16.10;100022.00;;;;2071487;28;20234;-53
2021/01/08 04:12:23;;;;;;;1.20;1.10;;;;;16.10;100018.00;;;;2071461;28;20261;-50
2021/01/08 04:13:23;;;;;;;1.30;1.20;;;;;16.10;100015.00;;;;2071519;28;20218;-52
2021/01/08 04:14:23;;;;;;;1.27;1.17;;;;;16.10;100018.00;;;;2070887;28;20318;-52
2021/01/08 04:15:24;;;;;;;1.43;1.33;;;;;16.10;100016.00;;;;2070834;28;20223;-53
2021/01/08 04:16:30;;;;;;;1.60;1.50;;;;;16.10;100020.00;;;;2071704;28;20215;-54
2021/01/08 04:17:30;;;;;;;1.50;1.40;;;;;16.10;100015.00;;;;2070670;28;20284;-53
2021/01/08 04:18:30;;;;;;;1.60;1.50;;;;;16.10;100025.00;;;;2070843;28;20242;-52
2021/01/08 04:19:31;;;;;;;1.73;1.50;;;;;16.10;100015.00;;;;2070601;28;20265;-52
2021/01/08 04:20:31;;;;;;;1.30;1.20;;;;;16.10;100018.00;;;;2071446;28;20297;-50
2021/01/08 04:21:31;;;;;;;1.47;1.37;;;;;16.00;100018.00;;;;2071338;28;20238;-53
2021/01/08 04:22:32;;;;;;;1.50;1.40;;;;;16.00;100023.00;;;;2071419;28;20227;-53
2021/01/08 04:23:32;;;;;;;1.10;1.10;;;;;16.00;100025.00;;;;2071450;28;20223;-53
2021/01/08 04:24:32;;;;;;;1.30;1.20;;;;;16.00;100018.00;;;;2070318;28;20218;-53
2021/01/08 04:25:33;;;;;;;1.30;1.20;;;;;16.10;100016.00;;;;2071342;28;20236;-54
2021/01/08 04:26:33;;;;;;;1.60;1.50;;;;;16.10;100023.00;;;;2071705;28;20214;-52
2021/01/08 04:27:33;;;;;;;1.50;1.40;;;;;16.10;100013.00;;;;2071260;28;20269;-52
2021/01/08 04:28:34;;;;;;;1.37;1.27;;;;;16.10;100021.00;;;;2071601;28;20218;-53
2021/01/08 04:29:34;;;;;;;1.30;1.20;;;;;16.10;100016.00;;;;2071322;28;20297;-53
2021/01/08 04:30:34;;;;;;;1.33;1.23;;;;;16.00;100018.00;;;;2071433;28;20221;-53
2021/01/08 04:31:35;;;;;;;1.47;1.37;;;;;16.00;100018.00;;;;2071509;28;20575;-53
2021/01/08 04:32:35;;;;;;;1.60;1.50;;;;;16.10;100028.00;;;;2071461;28;20264;-50
2021/01/08 04:33:36;;;;;;;1.60;1.50;;;;;16.00;100019.00;;;;2071438;28;20290;-50
2021/01/08 04:34:36;;;;;;;1.40;1.30;;;;;16.10;100013.00;;;;2070413;28;20706;-53
2021/01/08 04:35:36;;;;;;;1.60;1.50;;;;;16.10;100018.00;;;;2070490;28;20643;-53
2021/01/08 04:36:37;;;;;;;1.50;1.40;;;;;16.00;100022.00;;;;2071091;28;20584;-52
2021/01/08 04:37:37;;;;;;;1.50;1.40;;;;;16.10;100021.00;;;;2071047;28;20234;-54
2021/01/08 04:38:37;;;;;;;1.27;1.17;;;;;16.10;100022.00;;;;2071085;28;20218;-52
2021/01/08 04:39:38;;;;;;;1.13;1.03;;;;;16.10;100022.00;;;;2071296;28;20670;-50
2021/01/08 04:40:38;;;;;;;1.40;1.30;;;;;16.00;100031.00;;;;2071296;28;20653;-51
2021/01/08 04:41:38;;;;;;;1.40;1.30;;;;;16.10;100026.00;;;;2070966;28;20580;-53
2021/01/08 04:42:39;;;;;;;1.33;1.23;;;;;16.10;100020.00;;;;2070495;28;20218;-53
2021/01/08 04:43:39;;;;;;;1.43;1.37;;;;;16.00;100024.00;;;;2070499;28;20221;-50
2021/01/08 04:44:39;;;;;;;1.67;1.57;;;;;16.10;100026.00;;;;2069902;28;20640;-53
2021/01/08 04:45:40;;;;;;;1.40;1.30;;;;;16.10;100027.00;;;;2070717;28;20636;-50
2021/01/08 04:46:40;;;;;;;1.50;1.40;;;;;16.00;100022.00;;;;2070755;28;20627;-51
2021/01/08 04:47:41;;;;;;;1.50;1.40;;;;;16.00;100032.00;;;;2062298;28;20589;-53
2021/01/08 04:48:41;;;;;;;1.30;1.20;;;;;16.00;100029.00;;;;2052726;28;20579;-53
2021/01/08 04:49:41;;;;;;;1.30;1.20;;;;;16.10;100025.00;;;;2063857;28;20222;-53
2021/01/08 04:50:42;;;;;;;1.27;1.17;;;;;16.10;100028.00;;;;2070700;28;20242;-51
2021/01/08 04:51:42;;;;;;;1.40;1.30;;;;;16.00;100030.00;;;;2061606;28;20211;-51
2021/01/08 04:52:42;;;;;;;1.37;1.27;;;;;16.00;100029.00;;;;2061858;28;20208;-52
2021/01/08 04:53:43;;;;;;;1.40;1.30;;;;;16.10;100028.00;;;;2061605;28;20413;-58
2021/01/08 04:54:43;;;;;;;1.00;1.00;;;;;16.10;100032.00;;;;2069686;28;20286;-56
2021/01/08 04:55:43;;;;;;;1.20;1.20;;;;;16.00;100032.00;;;;2070537;28;20223;-54
2021/01/08 04:56:45;;;;;;;1.03;1.03;;;;;16.10;100029.00;;;;2062473;28;20227;-54
2021/01/08 04:57:46;;;;;;;1.40;1.30;;;;;16.10;100024.00;;;;2062489;28;20207;-53
2021/01/08 04:58:46;;;;;;;1.15;1.15;;;;;16.00;100022.00;;;;2070516;28;20211;-51
2021/01/08 04:59:47;;;;;;;1.37;1.27;;;;;16.10;100029.00;;;;2054300;28;21165;-52
2021/01/08 05:00:47;;;;;;;1.03;1.03;;;;;16.10;100033.00;;;;2062479;28;20644;-52
2021/01/08 05:01:48;;;;;;;1.23;1.13;;;;;16.10;100027.00;;;;2054036;28;20235;-53
2021/01/08 05:02:50;;;;;;;1.17;1.17;;;;;16.10;100028.00;;;;2062393;28;20813;-53
2021/01/08 05:03:51;;;;;;;1.40;1.30;;;;;16.10;100030.00;;;;2070354;28;20262;-50